sensor_id;sensor_type;location;lat;lon;timestamp;P1;durP1;ratioP1;P2;durP2;ratioP2
45848;SDS011;31567;54.600;9.842;2022-10-31T00:01:29;167.52;;;24.85;;
45848;SDS011;31567;54.600;9.842;2022-10-31T00:05:10;127.78;;;24.55;;
45848;SDS011;31567;54.600;9.842;2022-10-31T00:08:57;144.90;;;23.75;;
45848;SDS011;31567;54.600;9.842;2022-10-31T00:12:39;180.65;;;29.05;;
45848;SDS011;31567;54.600;9.842;2022-10-31T00:16:22;173.07;;;25.52;;
45848;SDS011;31567;54.600;9.842;2022-10-31T00:20:03;180.45;;;22.90;;
45848;SDS011;31567;54.600;9.842;2022-10-31T00:23:43;114.60;;;19.50;;
45848;SDS011;31567;54.600;9.842;2022-10-31T00:27:23;54.50;;;17.42;;
45848;SDS011;31567;54.600;9.842;2022-10-31T00:31:03;135.05;;;22.45;;
45848;SDS011;31567;54.600;9.842;2022-10-31T00:34:44;137.10;;;23.45;;
45848;SDS011;31567;54.600;9.842;2022-10-31T00:38:24;388.90;;;35.28;;
45848;SDS011;31567;54.600;9.842;2022-10-31T00:42:03;258.67;;;29.10;;
45848;SDS011;31567;54.600;9.842;2022-10-31T00:45:43;383.77;;;33.88;;
45848;SDS011;31567;54.600;9.842;2022-10-31T00:49:22;212.18;;;27.77;;
45848;SDS011;31567;54.600;9.842;2022-10-31T00:53:02;270.15;;;28.17;;
45848;SDS011;31567;54.600;9.842;2022-10-31T00:56:42;251.70;;;29.58;;
45848;SDS011;31567;54.600;9.842;2022-10-31T01:00:21;216.55;;;22.73;;
45848;SDS011;31567;54.600;9.842;2022-10-31T01:04:01;195.32;;;30.63;;
45848;SDS011;31567;54.600;9.842;2022-10-31T01:07:40;99.63;;;22.30;;
45848;SDS011;31567;54.600;9.842;2022-10-31T01:11:21;94.90;;;24.67;;
45848;SDS011;31567;54.600;9.842;2022-10-31T01:15:02;122.22;;;25.98;;
45848;SDS011;31567;54.600;9.842;2022-10-31T01:18:41;60.95;;;18.58;;
45848;SDS011;31567;54.600;9.842;2022-10-31T01:22:21;86.78;;;19.05;;
45848;SDS011;31567;54.600;9.842;2022-10-31T01:26:02;85.57;;;18.67;;
45848;SDS011;31567;54.600;9.842;2022-10-31T01:29:44;39.10;;;16.35;;
45848;SDS011;31567;54.600;9.842;2022-10-31T01:33:23;75.45;;;19.58;;
45848;SDS011;31567;54.600;9.842;2022-10-31T01:37:03;87.32;;;19.27;;
45848;SDS011;31567;54.600;9.842;2022-10-31T01:40:42;137.98;;;22.90;;
45848;SDS011;31567;54.600;9.842;2022-10-31T01:48:01;90.68;;;21.65;;
45848;SDS011;31567;54.600;9.842;2022-10-31T01:51:42;87.57;;;19.95;;
45848;SDS011;31567;54.600;9.842;2022-10-31T01:55:30;64.03;;;20.92;;
45848;SDS011;31567;54.600;9.842;2022-10-31T01:59:15;72.05;;;22.75;;
45848;SDS011;31567;54.600;9.842;2022-10-31T02:02:58;81.03;;;23.23;;
45848;SDS011;31567;54.600;9.842;2022-10-31T02:06:43;109.88;;;27.55;;
45848;SDS011;31567;54.600;9.842;2022-10-31T02:10:36;52.70;;;20.98;;
45848;SDS011;31567;54.600;9.842;2022-10-31T02:14:16;75.35;;;28.20;;
45848;SDS011;31567;54.600;9.842;2022-10-31T02:17:56;51.70;;;25.65;;
45848;SDS011;31567;54.600;9.842;2022-10-31T02:21:50;24.67;;;21.98;;
45848;SDS011;31567;54.600;9.842;2022-10-31T02:37:21;26.88;;;23.75;;
45848;SDS011;31567;54.600;9.842;2022-10-31T02:41:10;26.25;;;23.15;;
45848;SDS011;31567;54.600;9.842;2022-10-31T02:45:12;36.95;;;28.35;;
45848;SDS011;31567;54.600;9.842;2022-10-31T02:49:00;39.03;;;29.35;;
45848;SDS011;31567;54.600;9.842;2022-10-31T02:52:44;43.85;;;30.95;;
45848;SDS011;31567;54.600;9.842;2022-10-31T02:56:28;45.78;;;31.65;;
45848;SDS011;31567;54.600;9.842;2022-10-31T03:00:08;50.80;;;32.60;;
45848;SDS011;31567;54.600;9.842;2022-10-31T03:07:41;43.38;;;30.10;;
45848;SDS011;31567;54.600;9.842;2022-10-31T03:11:46;43.53;;;31.30;;
45848;SDS011;31567;54.600;9.842;2022-10-31T03:15:38;45.67;;;32.10;;
45848;SDS011;31567;54.600;9.842;2022-10-31T03:19:23;94.63;;;35.10;;
45848;SDS011;31567;54.600;9.842;2022-10-31T03:23:08;259.85;;;41.35;;
45848;SDS011;31567;54.600;9.842;2022-10-31T03:26:53;163.05;;;34.80;;
45848;SDS011;31567;54.600;9.842;2022-10-31T03:30:36;157.60;;;33.78;;
45848;SDS011;31567;54.600;9.842;2022-10-31T03:34:19;157.63;;;34.63;;
45848;SDS011;31567;54.600;9.842;2022-10-31T03:37:59;181.82;;;34.22;;
45848;SDS011;31567;54.600;9.842;2022-10-31T03:41:45;125.13;;;33.10;;
45848;SDS011;31567;54.600;9.842;2022-10-31T03:45:30;85.82;;;31.90;;
45848;SDS011;31567;54.600;9.842;2022-10-31T03:49:10;333.98;;;38.97;;
45848;SDS011;31567;54.600;9.842;2022-10-31T03:56:42;124.05;;;36.20;;
45848;SDS011;31567;54.600;9.842;2022-10-31T04:00:27;156.77;;;39.20;;
45848;SDS011;31567;54.600;9.842;2022-10-31T04:04:08;51.78;;;32.85;;
45848;SDS011;31567;54.600;9.842;2022-10-31T04:07:50;53.42;;;35.47;;
45848;SDS011;31567;54.600;9.842;2022-10-31T04:11:35;78.18;;;38.53;;
45848;SDS011;31567;54.600;9.842;2022-10-31T04:15:17;150.48;;;39.78;;
45848;SDS011;31567;54.600;9.842;2022-10-31T04:18:58;74.10;;;38.42;;
45848;SDS011;31567;54.600;9.842;2022-10-31T04:22:37;105.70;;;39.67;;
45848;SDS011;31567;54.600;9.842;2022-10-31T04:26:17;261.30;;;44.25;;
45848;SDS011;31567;54.600;9.842;2022-10-31T04:29:56;154.50;;;39.88;;
45848;SDS011;31567;54.600;9.842;2022-10-31T04:33:36;68.20;;;35.50;;
45848;SDS011;31567;54.600;9.842;2022-10-31T04:37:15;119.10;;;37.53;;
45848;SDS011;31567;54.600;9.842;2022-10-31T04:40:55;179.52;;;41.30;;
45848;SDS011;31567;54.600;9.842;2022-10-31T04:44:34;162.98;;;36.40;;
45848;SDS011;31567;54.600;9.842;2022-10-31T04:48:14;157.18;;;37.08;;
45848;SDS011;31567;54.600;9.842;2022-10-31T04:51:53;187.98;;;40.83;;
45848;SDS011;31567;54.600;9.842;2022-10-31T04:55:33;146.68;;;40.10;;
45848;SDS011;31567;54.600;9.842;2022-10-31T04:59:13;104.93;;;36.80;;
45848;SDS011;31567;54.600;9.842;2022-10-31T05:02:54;126.13;;;35.15;;
45848;SDS011;31567;54.600;9.842;2022-10-31T05:06:34;159.15;;;33.92;;
45848;SDS011;31567;54.600;9.842;2022-10-31T05:10:15;144.20;;;32.90;;
45848;SDS011;31567;54.600;9.842;2022-10-31T05:13:57;181.23;;;34.85;;
45848;SDS011;31567;54.600;9.842;2022-10-31T05:17:36;196.40;;;33.28;;
45848;SDS011;31567;54.600;9.842;2022-10-31T05:21:16;165.00;;;33.67;;
45848;SDS011;31567;54.600;9.842;2022-10-31T05:24:55;181.25;;;32.60;;
45848;SDS011;31567;54.600;9.842;2022-10-31T05:28:35;261.60;;;34.38;;
45848;SDS011;31567;54.600;9.842;2022-10-31T05:32:14;97.93;;;31.15;;
45848;SDS011;31567;54.600;9.842;2022-10-31T05:35:54;107.28;;;29.52;;
45848;SDS011;31567;54.600;9.842;2022-10-31T05:39:33;81.68;;;29.35;;
45848;SDS011;31567;54.600;9.842;2022-10-31T05:43:13;598.95;;;43.65;;
45848;SDS011;31567;54.600;9.842;2022-10-31T05:46:52;327.38;;;32.05;;
45848;SDS011;31567;54.600;9.842;2022-10-31T05:50:32;310.05;;;31.83;;
45848;SDS011;31567;54.600;9.842;2022-10-31T05:54:11;316.55;;;31.17;;
45848;SDS011;31567;54.600;9.842;2022-10-31T05:57:51;260.23;;;27.25;;
45848;SDS011;31567;54.600;9.842;2022-10-31T06:01:31;371.63;;;28.52;;
45848;SDS011;31567;54.600;9.842;2022-10-31T06:05:11;753.78;;;43.38;;
45848;SDS011;31567;54.600;9.842;2022-10-31T06:08:51;963.65;;;45.78;;
45848;SDS011;31567;54.600;9.842;2022-10-31T06:12:30;425.67;;;28.52;;
45848;SDS011;31567;54.600;9.842;2022-10-31T06:16:10;495.30;;;34.47;;
45848;SDS011;31567;54.600;9.842;2022-10-31T06:19:50;214.70;;;22.83;;
45848;SDS011;31567;54.600;9.842;2022-10-31T06:23:29;430.25;;;30.45;;
45848;SDS011;31567;54.600;9.842;2022-10-31T06:27:09;509.08;;;36.45;;
45848;SDS011;31567;54.600;9.842;2022-10-31T06:30:48;261.30;;;25.30;;
45848;SDS011;31567;54.600;9.842;2022-10-31T06:34:27;249.63;;;23.15;;
45848;SDS011;31567;54.600;9.842;2022-10-31T06:38:07;446.70;;;31.70;;
45848;SDS011;31567;54.600;9.842;2022-10-31T06:41:47;248.40;;;23.45;;
45848;SDS011;31567;54.600;9.842;2022-10-31T06:45:27;514.50;;;33.00;;
45848;SDS011;31567;54.600;9.842;2022-10-31T06:49:07;372.48;;;26.08;;
45848;SDS011;31567;54.600;9.842;2022-10-31T06:52:50;329.92;;;24.63;;
45848;SDS011;31567;54.600;9.842;2022-10-31T06:56:31;275.02;;;21.90;;
45848;SDS011;31567;54.600;9.842;2022-10-31T07:00:10;346.58;;;29.65;;
45848;SDS011;31567;54.600;9.842;2022-10-31T07:03:50;243.75;;;26.30;;
45848;SDS011;31567;54.600;9.842;2022-10-31T07:07:30;223.48;;;22.60;;
45848;SDS011;31567;54.600;9.842;2022-10-31T07:11:09;158.82;;;18.30;;
45848;SDS011;31567;54.600;9.842;2022-10-31T07:14:49;203.85;;;19.92;;
45848;SDS011;31567;54.600;9.842;2022-10-31T07:18:28;153.80;;;19.02;;
45848;SDS011;31567;54.600;9.842;2022-10-31T07:22:08;182.32;;;20.23;;
45848;SDS011;31567;54.600;9.842;2022-10-31T07:25:47;98.95;;;17.35;;
45848;SDS011;31567;54.600;9.842;2022-10-31T07:29:27;122.10;;;17.23;;
45848;SDS011;31567;54.600;9.842;2022-10-31T07:33:06;128.18;;;15.32;;
45848;SDS011;31567;54.600;9.842;2022-10-31T07:36:47;223.95;;;16.75;;
45848;SDS011;31567;54.600;9.842;2022-10-31T07:40:26;259.45;;;19.75;;
45848;SDS011;31567;54.600;9.842;2022-10-31T07:44:06;161.95;;;16.70;;
45848;SDS011;31567;54.600;9.842;2022-10-31T07:47:46;158.07;;;16.42;;
45848;SDS011;31567;54.600;9.842;2022-10-31T07:51:26;77.65;;;14.32;;
45848;SDS011;31567;54.600;9.842;2022-10-31T07:55:06;105.55;;;16.73;;
45848;SDS011;31567;54.600;9.842;2022-10-31T07:58:46;53.83;;;17.52;;
45848;SDS011;31567;54.600;9.842;2022-10-31T08:02:26;44.05;;;17.55;;
45848;SDS011;31567;54.600;9.842;2022-10-31T08:06:05;18.17;;;14.15;;
45848;SDS011;31567;54.600;9.842;2022-10-31T08:09:45;21.95;;;14.88;;
45848;SDS011;31567;54.600;9.842;2022-10-31T08:13:24;14.98;;;13.27;;
45848;SDS011;31567;54.600;9.842;2022-10-31T08:17:04;14.02;;;12.70;;
45848;SDS011;31567;54.600;9.842;2022-10-31T08:20:44;14.18;;;12.70;;
45848;SDS011;31567;54.600;9.842;2022-10-31T08:24:23;15.63;;;12.02;;
45848;SDS011;31567;54.600;9.842;2022-10-31T08:28:03;12.90;;;11.60;;
45848;SDS011;31567;54.600;9.842;2022-10-31T08:31:43;13.15;;;11.75;;
45848;SDS011;31567;54.600;9.842;2022-10-31T08:35:23;12.65;;;11.43;;
45848;SDS011;31567;54.600;9.842;2022-10-31T08:39:02;13.45;;;11.48;;
45848;SDS011;31567;54.600;9.842;2022-10-31T08:42:42;14.48;;;12.15;;
45848;SDS011;31567;54.600;9.842;2022-10-31T08:46:21;16.17;;;13.60;;
45848;SDS011;31567;54.600;9.842;2022-10-31T08:50:01;16.77;;;13.13;;
45848;SDS011;31567;54.600;9.842;2022-10-31T08:53:40;26.42;;;14.68;;
45848;SDS011;31567;54.600;9.842;2022-10-31T08:57:20;31.58;;;15.60;;
45848;SDS011;31567;54.600;9.842;2022-10-31T09:01:00;32.08;;;16.35;;
45848;SDS011;31567;54.600;9.842;2022-10-31T09:04:40;19.45;;;13.52;;
45848;SDS011;31567;54.600;9.842;2022-10-31T09:08:19;31.00;;;15.68;;
45848;SDS011;31567;54.600;9.842;2022-10-31T09:11:59;26.20;;;16.55;;
45848;SDS011;31567;54.600;9.842;2022-10-31T09:15:39;26.67;;;16.73;;
45848;SDS011;31567;54.600;9.842;2022-10-31T09:19:20;29.10;;;17.15;;
45848;SDS011;31567;54.600;9.842;2022-10-31T09:23:01;24.48;;;15.50;;
45848;SDS011;31567;54.600;9.842;2022-10-31T09:26:42;21.23;;;14.18;;
45848;SDS011;31567;54.600;9.842;2022-10-31T09:30:21;44.10;;;14.63;;
45848;SDS011;31567;54.600;9.842;2022-10-31T09:34:01;23.50;;;14.60;;
45848;SDS011;31567;54.600;9.842;2022-10-31T09:37:40;21.55;;;13.85;;
45848;SDS011;31567;54.600;9.842;2022-10-31T09:49:23;16.38;;;11.30;;
45848;SDS011;31567;54.600;9.842;2022-10-31T09:53:17;23.98;;;11.52;;
45848;SDS011;31567;54.600;9.842;2022-10-31T09:57:05;19.77;;;10.90;;
45848;SDS011;31567;54.600;9.842;2022-10-31T10:00:49;17.27;;;10.55;;
45848;SDS011;31567;54.600;9.842;2022-10-31T10:08:21;16.55;;;10.57;;
45848;SDS011;31567;54.600;9.842;2022-10-31T10:12:14;17.60;;;10.18;;
45848;SDS011;31567;54.600;9.842;2022-10-31T10:16:15;17.17;;;9.68;;
45848;SDS011;31567;54.600;9.842;2022-10-31T10:20:31;16.38;;;9.93;;
45848;SDS011;31567;54.600;9.842;2022-10-31T10:24:39;16.08;;;9.23;;
45848;SDS011;31567;54.600;9.842;2022-10-31T10:28:31;13.18;;;8.82;;
45848;SDS011;31567;54.600;9.842;2022-10-31T10:32:22;14.35;;;9.57;;
45848;SDS011;31567;54.600;9.842;2022-10-31T10:36:05;14.00;;;7.75;;
45848;SDS011;31567;54.600;9.842;2022-10-31T10:39:54;16.17;;;8.40;;
45848;SDS011;31567;54.600;9.842;2022-10-31T10:43:37;11.93;;;6.78;;
45848;SDS011;31567;54.600;9.842;2022-10-31T10:47:18;9.15;;;6.07;;
45848;SDS011;31567;54.600;9.842;2022-10-31T10:51:22;8.65;;;3.78;;
45848;SDS011;31567;54.600;9.842;2022-10-31T10:58:49;6.72;;;2.15;;
45848;SDS011;31567;54.600;9.842;2022-10-31T11:02:31;11.02;;;4.00;;
45848;SDS011;31567;54.600;9.842;2022-10-31T11:06:29;8.40;;;3.47;;
45848;SDS011;31567;54.600;9.842;2022-10-31T11:10:12;8.43;;;3.33;;
45848;SDS011;31567;54.600;9.842;2022-10-31T11:13:58;9.00;;;3.35;;
45848;SDS011;31567;54.600;9.842;2022-10-31T11:17:46;8.45;;;2.67;;
45848;SDS011;31567;54.600;9.842;2022-10-31T11:21:31;9.95;;;4.18;;
45848;SDS011;31567;54.600;9.842;2022-10-31T11:29:02;8.88;;;2.47;;
45848;SDS011;31567;54.600;9.842;2022-10-31T11:32:45;8.45;;;1.80;;
45848;SDS011;31567;54.600;9.842;2022-10-31T11:36:32;8.65;;;1.92;;
45848;SDS011;31567;54.600;9.842;2022-10-31T11:44:11;7.05;;;1.92;;
45848;SDS011;31567;54.600;9.842;2022-10-31T11:47:56;5.55;;;2.10;;
45848;SDS011;31567;54.600;9.842;2022-10-31T11:51:37;7.80;;;1.58;;
45848;SDS011;31567;54.600;9.842;2022-10-31T11:55:34;9.40;;;1.88;;
45848;SDS011;31567;54.600;9.842;2022-10-31T11:59:17;7.80;;;2.00;;
45848;SDS011;31567;54.600;9.842;2022-10-31T12:06:52;7.00;;;2.10;;
45848;SDS011;31567;54.600;9.842;2022-10-31T12:10:37;8.55;;;1.95;;
45848;SDS011;31567;54.600;9.842;2022-10-31T12:22:03;8.68;;;2.70;;
45848;SDS011;31567;54.600;9.842;2022-10-31T12:25:48;5.85;;;1.90;;
45848;SDS011;31567;54.600;9.842;2022-10-31T12:29:39;9.18;;;1.60;;
45848;SDS011;31567;54.600;9.842;2022-10-31T12:38:07;8.05;;;2.28;;
45848;SDS011;31567;54.600;9.842;2022-10-31T12:45:59;8.13;;;1.70;;
45848;SDS011;31567;54.600;9.842;2022-10-31T12:57:51;11.23;;;2.10;;
45848;SDS011;31567;54.600;9.842;2022-10-31T13:01:40;6.28;;;1.50;;
45848;SDS011;31567;54.600;9.842;2022-10-31T13:05:51;5.57;;;1.90;;
45848;SDS011;31567;54.600;9.842;2022-10-31T13:09:42;6.97;;;1.90;;
45848;SDS011;31567;54.600;9.842;2022-10-31T13:13:35;7.30;;;2.35;;
45848;SDS011;31567;54.600;9.842;2022-10-31T13:17:34;8.88;;;2.42;;
45848;SDS011;31567;54.600;9.842;2022-10-31T13:21:25;7.82;;;2.63;;
45848;SDS011;31567;54.600;9.842;2022-10-31T13:32:51;10.35;;;2.85;;
45848;SDS011;31567;54.600;9.842;2022-10-31T13:36:38;8.43;;;2.50;;
45848;SDS011;31567;54.600;9.842;2022-10-31T13:44:44;6.65;;;2.38;;
45848;SDS011;31567;54.600;9.842;2022-10-31T13:48:33;9.00;;;2.60;;
45848;SDS011;31567;54.600;9.842;2022-10-31T13:52:16;7.75;;;2.60;;
45848;SDS011;31567;54.600;9.842;2022-10-31T13:56:04;7.93;;;3.67;;
45848;SDS011;31567;54.600;9.842;2022-10-31T13:59:59;9.02;;;3.33;;
45848;SDS011;31567;54.600;9.842;2022-10-31T14:07:42;6.97;;;3.90;;
45848;SDS011;31567;54.600;9.842;2022-10-31T14:11:25;9.52;;;5.65;;
45848;SDS011;31567;54.600;9.842;2022-10-31T14:19:02;12.30;;;6.45;;
45848;SDS011;31567;54.600;9.842;2022-10-31T14:22:45;7.22;;;6.57;;
45848;SDS011;31567;54.600;9.842;2022-10-31T14:30:15;8.40;;;6.90;;
45848;SDS011;31567;54.600;9.842;2022-10-31T14:33:56;9.50;;;6.68;;
45848;SDS011;31567;54.600;9.842;2022-10-31T14:41:21;8.60;;;7.57;;
45848;SDS011;31567;54.600;9.842;2022-10-31T14:52:55;13.35;;;8.85;;
45848;SDS011;31567;54.600;9.842;2022-10-31T14:56:37;12.20;;;8.23;;
45848;SDS011;31567;54.600;9.842;2022-10-31T15:00:28;11.43;;;8.00;;
45848;SDS011;31567;54.600;9.842;2022-10-31T15:04:13;9.57;;;7.68;;
45848;SDS011;31567;54.600;9.842;2022-10-31T15:07:56;11.00;;;8.68;;
45848;SDS011;31567;54.600;9.842;2022-10-31T15:11:37;13.13;;;9.25;;
45848;SDS011;31567;54.600;9.842;2022-10-31T15:15:26;12.85;;;8.73;;
45848;SDS011;31567;54.600;9.842;2022-10-31T15:19:06;12.88;;;7.90;;
45848;SDS011;31567;54.600;9.842;2022-10-31T15:22:50;13.57;;;8.68;;
45848;SDS011;31567;54.600;9.842;2022-10-31T15:26:32;15.18;;;8.20;;
45848;SDS011;31567;54.600;9.842;2022-10-31T15:30:25;12.15;;;8.07;;
45848;SDS011;31567;54.600;9.842;2022-10-31T15:34:11;11.45;;;8.75;;
45848;SDS011;31567;54.600;9.842;2022-10-31T15:37:58;13.02;;;7.72;;
45848;SDS011;31567;54.600;9.842;2022-10-31T15:41:44;12.13;;;7.95;;
45848;SDS011;31567;54.600;9.842;2022-10-31T15:45:37;10.93;;;7.55;;
45848;SDS011;31567;54.600;9.842;2022-10-31T15:49:25;11.15;;;6.80;;
45848;SDS011;31567;54.600;9.842;2022-10-31T15:53:20;10.77;;;5.88;;
45848;SDS011;31567;54.600;9.842;2022-10-31T15:57:00;9.23;;;6.22;;
45848;SDS011;31567;54.600;9.842;2022-10-31T16:00:40;12.10;;;6.93;;
45848;SDS011;31567;54.600;9.842;2022-10-31T16:04:21;11.07;;;6.47;;
45848;SDS011;31567;54.600;9.842;2022-10-31T16:08:02;12.23;;;6.07;;
45848;SDS011;31567;54.600;9.842;2022-10-31T16:11:42;12.25;;;6.28;;
45848;SDS011;31567;54.600;9.842;2022-10-31T16:15:22;15.52;;;7.78;;
45848;SDS011;31567;54.600;9.842;2022-10-31T16:19:02;18.52;;;7.32;;
45848;SDS011;31567;54.600;9.842;2022-10-31T16:22:46;14.40;;;8.18;;
45848;SDS011;31567;54.600;9.842;2022-10-31T16:26:28;14.40;;;8.52;;
45848;SDS011;31567;54.600;9.842;2022-10-31T16:34:21;15.13;;;9.57;;
45848;SDS011;31567;54.600;9.842;2022-10-31T16:38:01;16.45;;;9.73;;
45848;SDS011;31567;54.600;9.842;2022-10-31T16:41:42;20.48;;;11.15;;
45848;SDS011;31567;54.600;9.842;2022-10-31T16:45:24;14.65;;;9.48;;
45848;SDS011;31567;54.600;9.842;2022-10-31T16:49:07;14.05;;;8.35;;
45848;SDS011;31567;54.600;9.842;2022-10-31T16:52:47;13.02;;;9.00;;
45848;SDS011;31567;54.600;9.842;2022-10-31T16:56:28;16.67;;;8.82;;
45848;SDS011;31567;54.600;9.842;2022-10-31T17:00:15;19.45;;;9.88;;
45848;SDS011;31567;54.600;9.842;2022-10-31T17:03:57;14.93;;;9.45;;
45848;SDS011;31567;54.600;9.842;2022-10-31T17:07:37;12.35;;;8.95;;
45848;SDS011;31567;54.600;9.842;2022-10-31T17:11:17;20.33;;;10.70;;
45848;SDS011;31567;54.600;9.842;2022-10-31T17:15:00;18.50;;;11.48;;
45848;SDS011;31567;54.600;9.842;2022-10-31T17:18:39;19.52;;;11.73;;
45848;SDS011;31567;54.600;9.842;2022-10-31T17:22:21;17.33;;;10.85;;
45848;SDS011;31567;54.600;9.842;2022-10-31T17:26:01;18.83;;;11.20;;
45848;SDS011;31567;54.600;9.842;2022-10-31T17:29:40;18.95;;;12.10;;
45848;SDS011;31567;54.600;9.842;2022-10-31T17:33:20;19.92;;;11.68;;
45848;SDS011;31567;54.600;9.842;2022-10-31T17:36:59;19.92;;;11.23;;
45848;SDS011;31567;54.600;9.842;2022-10-31T17:40:39;16.52;;;11.15;;
45848;SDS011;31567;54.600;9.842;2022-10-31T17:44:22;20.05;;;10.98;;
45848;SDS011;31567;54.600;9.842;2022-10-31T17:48:01;19.48;;;11.45;;
45848;SDS011;31567;54.600;9.842;2022-10-31T17:51:41;14.82;;;10.85;;
45848;SDS011;31567;54.600;9.842;2022-10-31T17:55:20;19.63;;;11.02;;
45848;SDS011;31567;54.600;9.842;2022-10-31T17:59:00;17.27;;;11.48;;
45848;SDS011;31567;54.600;9.842;2022-10-31T18:02:40;16.77;;;10.98;;
45848;SDS011;31567;54.600;9.842;2022-10-31T18:06:19;18.92;;;11.85;;
45848;SDS011;31567;54.600;9.842;2022-10-31T18:09:59;17.42;;;11.80;;
45848;SDS011;31567;54.600;9.842;2022-10-31T18:13:39;17.20;;;12.00;;
45848;SDS011;31567;54.600;9.842;2022-10-31T18:17:19;16.20;;;12.40;;
45848;SDS011;31567;54.600;9.842;2022-10-31T18:20:59;18.33;;;12.68;;
45848;SDS011;31567;54.600;9.842;2022-10-31T18:24:38;22.08;;;14.55;;
45848;SDS011;31567;54.600;9.842;2022-10-31T18:28:18;22.20;;;12.82;;
45848;SDS011;31567;54.600;9.842;2022-10-31T18:31:57;20.85;;;14.35;;
45848;SDS011;31567;54.600;9.842;2022-10-31T18:35:37;21.95;;;14.23;;
45848;SDS011;31567;54.600;9.842;2022-10-31T18:39:17;22.20;;;14.77;;
45848;SDS011;31567;54.600;9.842;2022-10-31T18:42:57;27.05;;;15.30;;
45848;SDS011;31567;54.600;9.842;2022-10-31T18:46:36;23.67;;;15.48;;
45848;SDS011;31567;54.600;9.842;2022-10-31T18:50:16;23.52;;;14.88;;
45848;SDS011;31567;54.600;9.842;2022-10-31T18:53:59;25.05;;;15.25;;
45848;SDS011;31567;54.600;9.842;2022-10-31T18:57:39;21.95;;;14.95;;
45848;SDS011;31567;54.600;9.842;2022-10-31T19:01:19;24.83;;;15.23;;
45848;SDS011;31567;54.600;9.842;2022-10-31T19:04:59;22.55;;;14.30;;
45848;SDS011;31567;54.600;9.842;2022-10-31T19:08:38;21.42;;;15.02;;
45848;SDS011;31567;54.600;9.842;2022-10-31T19:12:18;25.08;;;14.63;;
45848;SDS011;31567;54.600;9.842;2022-10-31T19:16:04;25.10;;;14.20;;
45848;SDS011;31567;54.600;9.842;2022-10-31T19:19:45;22.02;;;14.63;;
45848;SDS011;31567;54.600;9.842;2022-10-31T19:23:24;20.60;;;13.93;;
45848;SDS011;31567;54.600;9.842;2022-10-31T19:27:04;20.88;;;13.82;;
45848;SDS011;31567;54.600;9.842;2022-10-31T19:30:50;20.27;;;13.20;;
45848;SDS011;31567;54.600;9.842;2022-10-31T19:34:31;19.65;;;12.73;;
45848;SDS011;31567;54.600;9.842;2022-10-31T19:38:10;21.75;;;12.35;;
45848;SDS011;31567;54.600;9.842;2022-10-31T19:41:50;18.42;;;11.52;;
45848;SDS011;31567;54.600;9.842;2022-10-31T19:45:29;22.38;;;12.50;;
45848;SDS011;31567;54.600;9.842;2022-10-31T19:49:09;16.67;;;11.23;;
45848;SDS011;31567;54.600;9.842;2022-10-31T19:52:49;18.50;;;10.15;;
45848;SDS011;31567;54.600;9.842;2022-10-31T19:56:29;14.77;;;8.95;;
45848;SDS011;31567;54.600;9.842;2022-10-31T20:00:08;17.50;;;9.02;;
45848;SDS011;31567;54.600;9.842;2022-10-31T20:03:49;11.95;;;8.90;;
45848;SDS011;31567;54.600;9.842;2022-10-31T20:07:29;15.43;;;9.02;;
45848;SDS011;31567;54.600;9.842;2022-10-31T20:11:08;17.08;;;9.65;;
45848;SDS011;31567;54.600;9.842;2022-10-31T20:14:48;16.00;;;9.50;;
45848;SDS011;31567;54.600;9.842;2022-10-31T20:18:28;17.60;;;9.20;;
45848;SDS011;31567;54.600;9.842;2022-10-31T20:22:09;14.18;;;9.10;;
45848;SDS011;31567;54.600;9.842;2022-10-31T20:25:49;14.80;;;8.13;;
45848;SDS011;31567;54.600;9.842;2022-10-31T20:29:28;17.33;;;9.15;;
45848;SDS011;31567;54.600;9.842;2022-10-31T20:33:08;16.27;;;9.32;;
45848;SDS011;31567;54.600;9.842;2022-10-31T20:36:48;13.00;;;8.73;;
45848;SDS011;31567;54.600;9.842;2022-10-31T20:40:27;16.63;;;9.63;;
45848;SDS011;31567;54.600;9.842;2022-10-31T20:44:07;13.82;;;10.18;;
45848;SDS011;31567;54.600;9.842;2022-10-31T20:47:46;17.10;;;10.00;;
45848;SDS011;31567;54.600;9.842;2022-10-31T20:51:26;16.58;;;10.20;;
45848;SDS011;31567;54.600;9.842;2022-10-31T20:55:06;17.20;;;11.60;;
45848;SDS011;31567;54.600;9.842;2022-10-31T20:58:46;15.65;;;12.18;;
45848;SDS011;31567;54.600;9.842;2022-10-31T21:02:26;17.50;;;12.43;;
45848;SDS011;31567;54.600;9.842;2022-10-31T21:06:06;18.75;;;12.45;;
45848;SDS011;31567;54.600;9.842;2022-10-31T21:09:46;20.88;;;12.85;;
45848;SDS011;31567;54.600;9.842;2022-10-31T21:13:25;19.42;;;12.15;;
45848;SDS011;31567;54.600;9.842;2022-10-31T21:17:09;22.15;;;12.77;;
45848;SDS011;31567;54.600;9.842;2022-10-31T21:20:48;23.20;;;14.80;;
45848;SDS011;31567;54.600;9.842;2022-10-31T21:24:27;24.15;;;14.27;;
45848;SDS011;31567;54.600;9.842;2022-10-31T21:28:08;21.50;;;15.05;;
45848;SDS011;31567;54.600;9.842;2022-10-31T21:31:49;25.00;;;16.40;;
45848;SDS011;31567;54.600;9.842;2022-10-31T21:35:28;30.75;;;18.13;;
45848;SDS011;31567;54.600;9.842;2022-10-31T21:39:08;29.35;;;18.15;;
45848;SDS011;31567;54.600;9.842;2022-10-31T21:42:47;27.50;;;17.95;;
45848;SDS011;31567;54.600;9.842;2022-10-31T21:46:28;31.40;;;19.08;;
45848;SDS011;31567;54.600;9.842;2022-10-31T21:50:09;31.52;;;18.80;;
45848;SDS011;31567;54.600;9.842;2022-10-31T21:53:49;34.75;;;19.40;;
45848;SDS011;31567;54.600;9.842;2022-10-31T21:57:47;39.53;;;19.98;;
45848;SDS011;31567;54.600;9.842;2022-10-31T22:01:27;35.45;;;18.95;;
45848;SDS011;31567;54.600;9.842;2022-10-31T22:05:07;35.58;;;18.95;;
45848;SDS011;31567;54.600;9.842;2022-10-31T22:08:47;36.47;;;19.60;;
45848;SDS011;31567;54.600;9.842;2022-10-31T22:12:26;35.05;;;19.55;;
45848;SDS011;31567;54.600;9.842;2022-10-31T22:16:07;34.80;;;18.85;;
45848;SDS011;31567;54.600;9.842;2022-10-31T22:19:48;35.72;;;20.15;;
45848;SDS011;31567;54.600;9.842;2022-10-31T22:23:27;32.85;;;19.92;;
45848;SDS011;31567;54.600;9.842;2022-10-31T22:27:07;36.88;;;19.10;;
45848;SDS011;31567;54.600;9.842;2022-10-31T22:30:47;35.60;;;19.13;;
45848;SDS011;31567;54.600;9.842;2022-10-31T22:34:26;35.65;;;19.55;;
45848;SDS011;31567;54.600;9.842;2022-10-31T22:38:06;37.75;;;20.25;;
45848;SDS011;31567;54.600;9.842;2022-10-31T22:41:45;38.72;;;21.02;;
45848;SDS011;31567;54.600;9.842;2022-10-31T22:45:25;40.25;;;20.65;;
45848;SDS011;31567;54.600;9.842;2022-10-31T22:49:06;37.35;;;20.27;;
45848;SDS011;31567;54.600;9.842;2022-10-31T22:52:47;41.42;;;21.00;;
45848;SDS011;31567;54.600;9.842;2022-10-31T22:56:28;42.13;;;22.83;;
45848;SDS011;31567;54.600;9.842;2022-10-31T23:00:09;44.17;;;23.30;;
45848;SDS011;31567;54.600;9.842;2022-10-31T23:03:49;50.08;;;22.33;;
45848;SDS011;31567;54.600;9.842;2022-10-31T23:07:29;41.58;;;21.80;;
45848;SDS011;31567;54.600;9.842;2022-10-31T23:11:12;46.78;;;22.63;;
45848;SDS011;31567;54.600;9.842;2022-10-31T23:14:59;43.28;;;22.95;;
45848;SDS011;31567;54.600;9.842;2022-10-31T23:18:39;50.10;;;23.08;;
45848;SDS011;31567;54.600;9.842;2022-10-31T23:22:18;46.95;;;23.40;;
45848;SDS011;31567;54.600;9.842;2022-10-31T23:25:58;44.50;;;23.15;;
45848;SDS011;31567;54.600;9.842;2022-10-31T23:29:57;48.95;;;22.42;;
45848;SDS011;31567;54.600;9.842;2022-10-31T23:33:37;47.97;;;23.13;;
45848;SDS011;31567;54.600;9.842;2022-10-31T23:37:17;44.58;;;21.48;;